Eighty Four, Pennsylvania
Current Conditions -  °F | °C
As of 1:15 AM on Saturday 29 Nov 2014 (Local Time) from KAFJ Reporting Station
Overcast Overcast  
Wind Chill: 28°   Ceiling: 6500
Heat Index: 28°   Visibility: 10mi
Dew Point: 18°   Wind: 3mph
Humidity: 64%   Direction: 170°S
Pressure: 30.17"   Gusts: NA
Location:  40.18°N, 80.13°W
Report Text: KAFJ 290615Z 17003KT 10SM OVC065 M02/M08 A3017 RMK AO1
Loading
Personal Weather Stations






























Interactive Weather Map New forecast layout! Learn more

10-Day Weather Forecast

Advertisements
Track Severe Weather on mobile